Time;durP1;ratioP1;P1;durP2;ratioP2;P2;SDS_P1;SDS_P2;PMS_P1;PMS_P2;Temp;Humidity;BMP_temperature;BMP_pressure;BME280_temperature;BME280_humidity;BME280_pressure;Samples;Min_cycle;Max_cycle;Signal;HPM_P1;HPM_P2
2023/11/30 00:01:21;;;;;;;6.43;3.28;;;;;;;;;;5041145;28;20027;-82
2023/11/30 00:04:06;;;;;;;6.53;3.53;;;;;;;;;;5028368;28;20065;-82
2023/11/30 00:06:52;;;;;;;9.48;4.00;;;;;;;;;;5022789;28;20032;-81
2023/11/30 00:09:37;;;;;;;6.25;3.38;;;;;;;;;;5019858;28;20049;-81
2023/11/30 00:12:22;;;;;;;8.18;3.40;;;;;;;;;;5020433;28;20118;-82
2023/11/30 00:15:07;;;;;;;6.70;3.50;;;;;;;;;;5020501;28;20438;-82
2023/11/30 00:17:53;;;;;;;6.45;3.50;;;;;;;;;;5020604;28;20500;-83
2023/11/30 00:20:38;;;;;;;6.97;4.30;;;;;;;;;;5021653;28;20395;-82
2023/11/30 00:23:23;;;;;;;6.18;3.10;;;;;;;;;;5024536;28;20361;-81
2023/11/30 00:26:08;;;;;;;9.23;3.75;;;;;;;;;;5026067;28;20054;-82
2023/11/30 00:28:54;;;;;;;6.65;3.92;;;;;;;;;;5037644;28;20753;-81
2023/11/30 00:31:47;;;;;;;9.02;3.38;;;;;;;;;;5025886;28;20490;-81
2023/11/30 00:34:32;;;;;;;6.47;3.22;;;;;;;;;;5023757;28;20113;-83
2023/11/30 00:37:35;;;;;;;6.85;3.90;;;;;;;;;;5039611;28;20032;-82
2023/11/30 00:40:23;;;;;;;8.73;3.30;;;;;;;;;;5019543;28;20538;-82
2023/11/30 00:43:08;;;;;;;7.40;3.83;;;;;;;;;;5018097;28;20029;-82
2023/11/30 00:45:53;;;;;;;5.38;3.10;;;;;;;;;;5027024;28;20477;-82
2023/11/30 00:48:39;;;;;;;6.05;3.03;;;;;;;;;;5020738;28;20021;-81
2023/11/30 00:51:24;;;;;;;6.50;3.65;;;;;;;;;;5022511;28;20032;-82
2023/11/30 00:54:09;;;;;;;18.30;3.85;;;;;;;;;;5021677;28;20037;-81
2023/11/30 00:56:54;;;;;;;7.85;3.50;;;;;;;;;;5022401;28;20063;-81
2023/11/30 00:59:39;;;;;;;6.90;3.55;;;;;;;;;;5021845;28;20013;-81
2023/11/30 01:02:25;;;;;;;8.82;3.72;;;;;;;;;;5025531;28;20509;-81
2023/11/30 01:05:10;;;;;;;6.93;3.63;;;;;;;;;;5016297;28;20473;-81
2023/11/30 01:07:55;;;;;;;6.60;3.08;;;;;;;;;;5027593;28;20273;-81
2023/11/30 01:10:44;;;;;;;8.05;3.90;;;;;;;;;;5024910;28;20052;-83
2023/11/30 01:13:29;;;;;;;10.57;3.85;;;;;;;;;;5023026;28;20705;-82
2023/11/30 01:16:14;;;;;;;6.95;3.70;;;;;;;;;;5025110;28;20538;-84
2023/11/30 01:18:59;;;;;;;7.93;3.63;;;;;;;;;;5020546;28;20522;-82
2023/11/30 01:21:45;;;;;;;6.45;3.47;;;;;;;;;;5020199;28;20017;-82
2023/11/30 01:24:30;;;;;;;6.68;3.30;;;;;;;;;;5028412;28;20029;-80
2023/11/30 01:27:16;;;;;;;6.40;3.85;;;;;;;;;;5023823;28;20025;-82
2023/11/30 01:30:01;;;;;;;6.75;3.88;;;;;;;;;;5026547;28;20519;-82
2023/11/30 01:32:46;;;;;;;5.78;3.45;;;;;;;;;;5022880;28;20542;-82
2023/11/30 01:35:31;;;;;;;6.07;3.35;;;;;;;;;;5025351;28;20073;-82
2023/11/30 01:38:17;;;;;;;8.35;3.72;;;;;;;;;;5015453;28;20033;-81
2023/11/30 01:41:02;;;;;;;6.40;3.97;;;;;;;;;;5036442;28;20500;-81
2023/11/30 01:43:47;;;;;;;7.53;3.58;;;;;;;;;;5023852;28;20021;-82
2023/11/30 01:46:32;;;;;;;5.30;3.20;;;;;;;;;;5017888;28;20055;-81
2023/11/30 01:49:18;;;;;;;6.07;3.67;;;;;;;;;;5037386;28;20041;-81
2023/11/30 01:52:03;;;;;;;8.40;4.32;;;;;;;;;;5019993;28;20181;-81
2023/11/30 01:54:48;;;;;;;6.80;3.58;;;;;;;;;;5029951;28;20041;-81
2023/11/30 01:57:34;;;;;;;7.93;4.45;;;;;;;;;;5023884;28;20033;-81
2023/11/30 02:00:19;;;;;;;9.55;4.38;;;;;;;;;;5026487;28;20040;-81
2023/11/30 02:03:05;;;;;;;7.97;3.70;;;;;;;;;;5040045;28;20026;-81
2023/11/30 02:05:51;;;;;;;6.82;3.58;;;;;;;;;;5023088;28;20036;-81
2023/11/30 02:08:36;;;;;;;10.70;4.07;;;;;;;;;;5024412;28;20025;-82
2023/11/30 02:11:21;;;;;;;5.93;4.03;;;;;;;;;;5024151;28;20075;-82
2023/11/30 02:14:07;;;;;;;8.15;3.78;;;;;;;;;;5017603;28;20052;-81
2023/11/30 02:16:52;;;;;;;13.45;3.90;;;;;;;;;;5021350;28;20547;-81
2023/11/30 02:19:39;;;;;;;10.65;4.00;;;;;;;;;;5025757;28;20040;-81
2023/11/30 02:22:24;;;;;;;7.60;3.22;;;;;;;;;;5021065;28;20063;-83
2023/11/30 02:25:09;;;;;;;8.18;4.47;;;;;;;;;;5014293;28;20036;-82
2023/11/30 02:27:58;;;;;;;8.43;4.03;;;;;;;;;;5022921;28;20062;-82
2023/11/30 02:30:46;;;;;;;7.75;3.50;;;;;;;;;;5029375;28;20064;-83
2023/11/30 02:33:31;;;;;;;10.15;4.28;;;;;;;;;;5026696;28;20029;-82
2023/11/30 02:36:16;;;;;;;8.68;4.32;;;;;;;;;;5021704;28;20057;-83
2023/11/30 02:39:02;;;;;;;7.32;3.80;;;;;;;;;;5031396;28;20473;-83
2023/11/30 02:41:47;;;;;;;8.10;4.10;;;;;;;;;;5017854;28;20230;-83
2023/11/30 02:44:32;;;;;;;8.63;4.25;;;;;;;;;;5020993;28;20026;-81
2023/11/30 02:47:17;;;;;;;7.88;4.07;;;;;;;;;;5029309;28;20029;-82
2023/11/30 02:50:03;;;;;;;9.00;3.58;;;;;;;;;;5021066;28;20095;-81
2023/11/30 02:52:48;;;;;;;7.35;4.40;;;;;;;;;;5029577;28;20108;-82
2023/11/30 02:55:33;;;;;;;6.20;3.65;;;;;;;;;;5025020;28;20115;-81
2023/11/30 02:58:18;;;;;;;8.45;4.70;;;;;;;;;;5022674;28;20035;-82
2023/11/30 03:01:04;;;;;;;7.90;3.75;;;;;;;;;;5024748;28;20475;-81
2023/11/30 03:03:49;;;;;;;8.80;3.83;;;;;;;;;;5025540;28;20101;-81
2023/11/30 03:06:34;;;;;;;6.85;3.47;;;;;;;;;;5034593;28;20025;-81
2023/11/30 03:09:20;;;;;;;7.47;4.22;;;;;;;;;;5030309;28;20020;-81
2023/11/30 03:12:05;;;;;;;8.27;3.70;;;;;;;;;;5019044;28;20036;-81
2023/11/30 03:14:50;;;;;;;9.00;4.68;;;;;;;;;;5029890;28;20029;-81
2023/11/30 03:17:36;;;;;;;8.75;4.15;;;;;;;;;;5031359;28;20025;-82
2023/11/30 03:20:21;;;;;;;7.90;4.40;;;;;;;;;;5026806;28;20031;-82
2023/11/30 03:23:06;;;;;;;7.45;4.10;;;;;;;;;;5030597;28;20047;-81
2023/11/30 03:25:51;;;;;;;8.52;4.10;;;;;;;;;;5046418;28;20036;-82
2023/11/30 03:28:37;;;;;;;6.20;3.83;;;;;;;;;;5023622;28;20103;-81
2023/11/30 03:31:22;;;;;;;6.03;3.72;;;;;;;;;;5030744;28;20025;-81
2023/11/30 03:34:07;;;;;;;8.73;4.30;;;;;;;;;;5026704;28;20025;-81
2023/11/30 03:36:53;;;;;;;9.68;4.40;;;;;;;;;;5028773;28;20037;-81
2023/11/30 03:39:38;;;;;;;7.93;4.10;;;;;;;;;;5023823;28;20029;-80
2023/11/30 03:42:23;;;;;;;8.13;4.00;;;;;;;;;;5024992;28;20026;-81
2023/11/30 03:45:09;;;;;;;7.40;4.05;;;;;;;;;;5030733;28;20136;-79
2023/11/30 03:47:54;;;;;;;9.38;4.07;;;;;;;;;;5030471;28;20016;-81
2023/11/30 03:50:39;;;;;;;7.15;3.58;;;;;;;;;;5025426;28;20519;-82
2023/11/30 03:53:24;;;;;;;6.55;3.60;;;;;;;;;;5033442;28;20040;-82
2023/11/30 03:56:10;;;;;;;8.15;4.53;;;;;;;;;;5011645;28;20112;-82
2023/11/30 03:58:55;;;;;;;6.60;3.65;;;;;;;;;;5025765;28;20021;-82
2023/11/30 04:01:40;;;;;;;9.52;4.43;;;;;;;;;;5028882;28;20484;-82
2023/11/30 04:04:25;;;;;;;7.60;3.80;;;;;;;;;;5028583;28;20087;-82
2023/11/30 04:07:10;;;;;;;6.70;4.07;;;;;;;;;;5026735;28;20060;-82
2023/11/30 04:09:56;;;;;;;10.68;4.88;;;;;;;;;;5024437;28;20045;-81
2023/11/30 04:12:41;;;;;;;10.27;4.32;;;;;;;;;;5013408;28;20037;-80
2023/11/30 04:15:27;;;;;;;9.18;4.85;;;;;;;;;;5019712;28;20135;-81
2023/11/30 04:18:12;;;;;;;8.90;5.22;;;;;;;;;;5013770;28;20037;-80
2023/11/30 04:20:57;;;;;;;7.18;4.20;;;;;;;;;;5020856;28;20348;-79
2023/11/30 04:23:42;;;;;;;7.38;3.92;;;;;;;;;;5024831;28;20056;-80
2023/11/30 04:26:28;;;;;;;8.25;4.90;;;;;;;;;;5022603;28;20039;-80
2023/11/30 04:29:13;;;;;;;8.77;3.80;;;;;;;;;;5020370;28;20087;-80
2023/11/30 04:31:58;;;;;;;6.95;3.80;;;;;;;;;;5014650;28;20108;-79
2023/11/30 04:34:43;;;;;;;7.70;4.78;;;;;;;;;;5008937;28;20487;-79
2023/11/30 04:37:28;;;;;;;7.35;4.53;;;;;;;;;;5018218;28;20025;-79
2023/11/30 04:40:14;;;;;;;7.70;4.20;;;;;;;;;;5019918;28;20029;-80
2023/11/30 04:42:59;;;;;;;9.85;4.45;;;;;;;;;;5023658;28;20028;-80
2023/11/30 04:45:44;;;;;;;6.78;3.78;;;;;;;;;;5021001;28;20753;-79
2023/11/30 04:48:30;;;;;;;7.03;3.88;;;;;;;;;;5008246;28;20112;-79
2023/11/30 04:51:15;;;;;;;8.35;4.50;;;;;;;;;;5024769;28;20037;-80
2023/11/30 04:54:01;;;;;;;10.82;5.28;;;;;;;;;;5015917;28;20380;-80
2023/11/30 04:56:46;;;;;;;8.70;5.35;;;;;;;;;;5027779;28;20029;-80
2023/11/30 04:59:32;;;;;;;9.13;4.57;;;;;;;;;;5036735;28;20048;-82
2023/11/30 05:02:17;;;;;;;10.38;5.22;;;;;;;;;;5027902;28;20109;-81
2023/11/30 05:05:02;;;;;;;10.27;4.63;;;;;;;;;;5038871;28;20035;-80
2023/11/30 05:07:48;;;;;;;10.30;5.22;;;;;;;;;;5035632;28;20040;-81
2023/11/30 05:10:33;;;;;;;10.68;4.97;;;;;;;;;;5046907;28;20037;-82
2023/11/30 05:13:18;;;;;;;6.63;4.10;;;;;;;;;;5040653;28;20028;-81
2023/11/30 05:16:04;;;;;;;7.80;4.63;;;;;;;;;;5027143;28;20079;-82
2023/11/30 05:18:49;;;;;;;7.75;4.53;;;;;;;;;;5007399;28;20029;-82
2023/11/30 05:21:35;;;;;;;9.23;5.05;;;;;;;;;;5024301;28;20098;-81
2023/11/30 05:24:20;;;;;;;8.27;4.43;;;;;;;;;;5024772;28;20040;-80
2023/11/30 05:27:05;;;;;;;9.10;4.82;;;;;;;;;;5018039;28;20776;-81
2023/11/30 05:29:50;;;;;;;7.72;4.20;;;;;;;;;;5025103;28;20029;-81
2023/11/30 05:32:36;;;;;;;10.95;4.72;;;;;;;;;;5016273;28;20033;-80
2023/11/30 05:35:24;;;;;;;13.55;5.13;;;;;;;;;;5011948;28;20094;-80
2023/11/30 05:38:09;;;;;;;8.15;3.88;;;;;;;;;;5022416;28;20030;-81
2023/11/30 05:40:55;;;;;;;9.48;4.95;;;;;;;;;;5030616;28;20395;-80
2023/11/30 05:43:40;;;;;;;8.32;4.40;;;;;;;;;;5023941;28;20023;-81
2023/11/30 05:46:25;;;;;;;8.10;4.68;;;;;;;;;;5023758;28;20030;-81
2023/11/30 05:49:11;;;;;;;9.18;4.95;;;;;;;;;;5016533;28;20049;-80
2023/11/30 05:51:56;;;;;;;13.45;5.55;;;;;;;;;;5013687;28;20032;-80
2023/11/30 05:54:41;;;;;;;9.90;5.07;;;;;;;;;;5000619;28;20052;-80
2023/11/30 05:57:27;;;;;;;9.07;5.00;;;;;;;;;;5001504;28;20036;-80
2023/11/30 06:00:12;;;;;;;10.90;5.57;;;;;;;;;;5017757;28;20037;-81
2023/11/30 06:02:57;;;;;;;8.45;4.95;;;;;;;;;;5014478;28;20033;-82
2023/11/30 06:05:42;;;;;;;10.27;4.93;;;;;;;;;;5016877;28;20490;-82
2023/11/30 06:08:28;;;;;;;7.97;5.35;;;;;;;;;;5011760;28;20475;-79
2023/11/30 06:11:16;;;;;;;8.98;4.55;;;;;;;;;;5022217;28;20398;-84
2023/11/30 06:14:02;;;;;;;9.20;4.63;;;;;;;;;;5043480;28;20025;-81
2023/11/30 06:16:47;;;;;;;10.70;5.57;;;;;;;;;;5016060;28;20113;-82
2023/11/30 06:19:32;;;;;;;9.32;5.55;;;;;;;;;;5027197;28;20068;-80
2023/11/30 06:22:17;;;;;;;12.15;5.13;;;;;;;;;;5033573;28;20345;-83
2023/11/30 06:25:03;;;;;;;8.52;4.93;;;;;;;;;;5032713;28;20025;-82
2023/11/30 06:27:49;;;;;;;9.68;5.63;;;;;;;;;;5040538;28;20624;-80
2023/11/30 06:30:34;;;;;;;8.98;4.45;;;;;;;;;;5025427;28;20384;-80
2023/11/30 06:33:19;;;;;;;10.30;5.53;;;;;;;;;;5025065;28;20036;-81
2023/11/30 06:36:05;;;;;;;10.30;5.20;;;;;;;;;;5039733;28;20037;-81
2023/11/30 06:38:50;;;;;;;8.57;5.00;;;;;;;;;;5040377;28;20025;-79
2023/11/30 06:41:35;;;;;;;11.48;5.32;;;;;;;;;;5020532;28;20037;-79
2023/11/30 06:44:20;;;;;;;10.35;5.55;;;;;;;;;;5024356;28;20037;-82
2023/11/30 06:47:06;;;;;;;11.20;5.45;;;;;;;;;;5025532;28;20029;-83
2023/11/30 06:49:51;;;;;;;10.02;5.20;;;;;;;;;;5026869;28;20017;-88
2023/11/30 06:52:36;;;;;;;11.45;5.43;;;;;;;;;;5028495;28;20372;-90
2023/11/30 06:55:22;;;;;;;11.50;5.80;;;;;;;;;;5027718;28;20557;-85
2023/11/30 06:58:07;;;;;;;9.73;5.68;;;;;;;;;;5019208;28;20533;-86
2023/11/30 07:00:52;;;;;;;9.52;4.68;;;;;;;;;;5026441;28;20119;-86
2023/11/30 07:03:37;;;;;;;8.88;4.95;;;;;;;;;;5040881;28;20116;-86
2023/11/30 07:06:23;;;;;;;13.57;5.47;;;;;;;;;;5008977;28;20717;-87
2023/11/30 07:09:12;;;;;;;11.73;6.18;;;;;;;;;;5037296;28;20045;-87
2023/11/30 07:11:57;;;;;;;9.45;5.32;;;;;;;;;;5036232;28;20110;-92
2023/11/30 07:14:43;;;;;;;10.90;5.25;;;;;;;;;;5041305;28;20092;-93
2023/11/30 07:17:28;;;;;;;9.70;5.03;;;;;;;;;;5027029;28;20048;-93
2023/11/30 07:20:14;;;;;;;9.32;5.45;;;;;;;;;;5056720;28;20032;-92
2023/11/30 07:22:59;;;;;;;11.05;6.15;;;;;;;;;;5043710;28;20025;-89
2023/11/30 07:25:45;;;;;;;13.15;6.28;;;;;;;;;;5025282;28;20076;-86
2023/11/30 07:28:32;;;;;;;10.73;5.88;;;;;;;;;;5038899;28;20029;-83
2023/11/30 07:31:21;;;;;;;11.13;5.80;;;;;;;;;;5035801;28;20170;-82
2023/11/30 07:34:06;;;;;;;17.77;6.13;;;;;;;;;;5040537;28;20040;-83
2023/11/30 07:36:52;;;;;;;9.68;5.20;;;;;;;;;;5054734;28;20033;-86
2023/11/30 07:39:37;;;;;;;10.40;5.80;;;;;;;;;;5043602;28;20515;-86
2023/11/30 07:42:22;;;;;;;14.07;6.25;;;;;;;;;;5039408;28;20020;-84
2023/11/30 07:45:09;;;;;;;13.35;6.20;;;;;;;;;;5027700;28;20033;-83
2023/11/30 07:47:56;;;;;;;13.85;6.25;;;;;;;;;;5034087;28;20029;-88
2023/11/30 07:50:41;;;;;;;11.18;6.03;;;;;;;;;;5048320;28;20043;-85
2023/11/30 07:53:27;;;;;;;9.85;5.78;;;;;;;;;;5041221;28;20025;-86
2023/11/30 07:56:12;;;;;;;10.65;5.50;;;;;;;;;;5040164;28;20063;-87
2023/11/30 07:58:57;;;;;;;11.68;5.90;;;;;;;;;;5040660;28;20028;-87
2023/11/30 08:01:42;;;;;;;12.40;6.40;;;;;;;;;;5020620;28;20124;-86
2023/11/30 08:04:28;;;;;;;11.05;5.95;;;;;;;;;;5037995;28;20025;-86
2023/11/30 08:07:13;;;;;;;13.80;7.43;;;;;;;;;;5044593;28;20029;-84
2023/11/30 08:09:59;;;;;;;12.60;5.97;;;;;;;;;;5034196;28;20135;-85
2023/11/30 08:12:45;;;;;;;13.55;6.07;;;;;;;;;;5044038;28;20093;-85
2023/11/30 08:15:33;;;;;;;12.02;6.22;;;;;;;;;;5040275;28;20495;-85
2023/11/30 08:18:24;;;;;;;10.55;6.47;;;;;;;;;;5039907;28;20143;-87
2023/11/30 08:21:09;;;;;;;10.68;5.70;;;;;;;;;;5060541;28;20057;-86
2023/11/30 08:24:04;;;;;;;12.48;5.95;;;;;;;;;;5019496;28;20044;-86
2023/11/30 08:26:50;;;;;;;13.07;6.70;;;;;;;;;;5040596;28;20289;-86
2023/11/30 08:29:36;;;;;;;11.95;5.90;;;;;;;;;;5022614;28;20133;-86
2023/11/30 08:32:21;;;;;;;11.95;6.78;;;;;;;;;;5029397;28;20029;-87
2023/11/30 08:35:07;;;;;;;10.98;5.78;;;;;;;;;;5029998;28;20425;-83
2023/11/30 08:37:52;;;;;;;14.85;7.30;;;;;;;;;;5039405;28;20530;-86
2023/11/30 08:40:38;;;;;;;11.95;6.70;;;;;;;;;;5031759;28;20028;-86
2023/11/30 08:43:23;;;;;;;14.15;7.68;;;;;;;;;;5039346;28;20129;-84
2023/11/30 08:46:08;;;;;;;14.13;5.97;;;;;;;;;;5027277;28;20021;-84
2023/11/30 08:48:56;;;;;;;11.68;6.43;;;;;;;;;;5034610;28;20020;-86
2023/11/30 08:51:43;;;;;;;11.93;7.15;;;;;;;;;;5036716;28;20103;-84
2023/11/30 08:54:28;;;;;;;13.98;7.68;;;;;;;;;;5032942;28;20025;-83
2023/11/30 08:57:13;;;;;;;12.77;7.18;;;;;;;;;;5037347;28;20107;-83
2023/11/30 08:59:58;;;;;;;17.67;7.72;;;;;;;;;;5030110;28;20079;-85
2023/11/30 09:02:43;;;;;;;12.75;6.60;;;;;;;;;;5026022;28;20025;-86
2023/11/30 09:05:29;;;;;;;16.08;7.18;;;;;;;;;;5030982;28;20070;-85
2023/11/30 09:08:14;;;;;;;13.25;7.43;;;;;;;;;;5047238;28;20021;-84
2023/11/30 09:10:59;;;;;;;13.23;7.68;;;;;;;;;;5017784;28;20084;-85
2023/11/30 09:13:45;;;;;;;13.30;7.05;;;;;;;;;;5025884;28;20037;-86
2023/11/30 09:16:30;;;;;;;13.32;6.80;;;;;;;;;;5006849;28;20022;-85
2023/11/30 09:19:15;;;;;;;19.33;8.85;;;;;;;;;;5021565;28;20399;-86
2023/11/30 09:22:00;;;;;;;14.73;7.55;;;;;;;;;;5021891;28;20026;-85
2023/11/30 09:24:46;;;;;;;14.02;6.97;;;;;;;;;;5028351;28;20029;-86
2023/11/30 09:27:32;;;;;;;16.90;8.23;;;;;;;;;;5026190;28;20040;-86
2023/11/30 09:30:17;;;;;;;15.68;8.63;;;;;;;;;;5026488;28;20017;-85
2023/11/30 09:33:04;;;;;;;14.98;8.00;;;;;;;;;;5022657;28;20079;-85
2023/11/30 09:35:49;;;;;;;22.60;8.13;;;;;;;;;;5021561;28;20033;-85
2023/11/30 09:38:35;;;;;;;18.40;8.23;;;;;;;;;;5030415;28;20112;-85
2023/11/30 09:41:22;;;;;;;12.07;7.63;;;;;;;;;;5019179;28;20083;-84
2023/11/30 09:44:08;;;;;;;14.40;7.63;;;;;;;;;;5022155;28;20117;-85
2023/11/30 09:46:56;;;;;;;12.57;7.80;;;;;;;;;;5014903;28;20021;-87
2023/11/30 09:49:41;;;;;;;14.75;7.95;;;;;;;;;;5032502;28;20495;-88
2023/11/30 09:52:27;;;;;;;16.70;8.27;;;;;;;;;;5028021;28;20475;-88
2023/11/30 09:55:13;;;;;;;14.32;8.10;;;;;;;;;;5029238;28;20058;-86
2023/11/30 09:57:58;;;;;;;12.82;7.93;;;;;;;;;;5032418;28;20050;-86
2023/11/30 10:00:44;;;;;;;16.25;7.35;;;;;;;;;;5025496;28;20100;-87
2023/11/30 10:03:32;;;;;;;11.43;6.63;;;;;;;;;;5031229;28;20056;-86
2023/11/30 10:06:17;;;;;;;12.98;7.03;;;;;;;;;;5016509;28;20124;-86
2023/11/30 10:09:03;;;;;;;13.50;7.82;;;;;;;;;;5012535;28;20034;-89
2023/11/30 10:11:48;;;;;;;14.85;8.70;;;;;;;;;;5032397;28;20029;-89
2023/11/30 10:14:33;;;;;;;14.23;8.27;;;;;;;;;;5022310;28;20021;-88
2023/11/30 10:17:19;;;;;;;13.80;7.93;;;;;;;;;;5034283;28;20049;-90
2023/11/30 10:20:05;;;;;;;12.30;7.72;;;;;;;;;;5041953;28;20032;-87
2023/11/30 10:22:51;;;;;;;13.70;7.38;;;;;;;;;;5058221;28;20025;-84
2023/11/30 10:25:37;;;;;;;13.25;7.45;;;;;;;;;;5047760;28;20083;-84
2023/11/30 10:28:22;;;;;;;14.30;8.38;;;;;;;;;;5043793;28;20020;-86
2023/11/30 10:31:08;;;;;;;17.40;9.23;;;;;;;;;;5039580;28;20143;-85
2023/11/30 10:34:04;;;;;;;15.15;7.53;;;;;;;;;;5037389;28;20033;-82
2023/11/30 10:36:50;;;;;;;16.20;8.85;;;;;;;;;;5020128;28;20051;-86
2023/11/30 10:39:36;;;;;;;13.35;8.18;;;;;;;;;;5037734;28;20050;-85
2023/11/30 10:42:23;;;;;;;13.95;8.48;;;;;;;;;;5036972;28;20422;-83
2023/11/30 10:45:08;;;;;;;13.93;8.07;;;;;;;;;;5041051;28;20016;-83
2023/11/30 10:47:54;;;;;;;14.55;8.32;;;;;;;;;;5037213;28;20039;-83
2023/11/30 10:50:40;;;;;;;16.95;9.57;;;;;;;;;;5038793;28;20044;-84
2023/11/30 10:53:34;;;;;;;15.07;8.63;;;;;;;;;;5044595;28;20250;-85
2023/11/30 10:56:19;;;;;;;14.00;8.00;;;;;;;;;;5035414;28;20029;-84
2023/11/30 10:59:11;;;;;;;17.70;9.50;;;;;;;;;;5036353;28;20132;-84
2023/11/30 11:01:56;;;;;;;14.65;8.48;;;;;;;;;;5040251;28;20041;-85
2023/11/30 11:04:42;;;;;;;16.83;9.20;;;;;;;;;;5036383;28;20033;-85
2023/11/30 11:07:28;;;;;;;15.25;8.95;;;;;;;;;;5027873;28;20049;-83
2023/11/30 11:10:26;;;;;;;14.70;8.50;;;;;;;;;;5056282;28;20040;-84
2023/11/30 11:13:17;;;;;;;18.00;9.73;;;;;;;;;;5036670;28;20032;-85
2023/11/30 11:16:02;;;;;;;15.57;8.32;;;;;;;;;;5041525;28;20033;-82
2023/11/30 11:18:47;;;;;;;14.43;8.75;;;;;;;;;;5031796;28;20033;-83
2023/11/30 11:21:36;;;;;;;14.50;9.90;;;;;;;;;;5036535;28;20029;-84
2023/11/30 11:24:22;;;;;;;15.30;8.83;;;;;;;;;;5032436;28;20024;-82
2023/11/30 11:27:07;;;;;;;15.57;8.07;;;;;;;;;;5029546;28;20017;-82
2023/11/30 11:29:54;;;;;;;14.75;8.65;;;;;;;;;;5033478;28;20033;-83
2023/11/30 11:32:40;;;;;;;12.80;7.55;;;;;;;;;;5032408;28;20033;-83
2023/11/30 11:35:28;;;;;;;17.95;9.25;;;;;;;;;;5026901;28;20056;-84
2023/11/30 11:38:13;;;;;;;15.52;8.45;;;;;;;;;;5027882;28;20039;-83
2023/11/30 11:40:58;;;;;;;15.07;8.77;;;;;;;;;;5032731;28;20023;-86
2023/11/30 11:43:46;;;;;;;16.42;8.15;;;;;;;;;;5036796;28;20402;-84
2023/11/30 11:46:31;;;;;;;12.88;8.02;;;;;;;;;;5043903;28;20095;-84
2023/11/30 11:49:17;;;;;;;16.40;8.60;;;;;;;;;;5033266;28;20029;-83
2023/11/30 11:52:02;;;;;;;17.83;8.98;;;;;;;;;;5048986;28;19996;-84
2023/11/30 11:54:59;;;;;;;13.93;7.30;;;;;;;;;;5065034;28;20025;-85
2023/11/30 11:57:45;;;;;;;13.93;7.55;;;;;;;;;;5055902;28;20024;-84
2023/11/30 12:00:30;;;;;;;13.82;7.63;;;;;;;;;;5067203;28;20044;-85
2023/11/30 12:03:15;;;;;;;14.05;8.35;;;;;;;;;;5050579;28;20037;-86
2023/11/30 12:06:00;;;;;;;12.63;7.78;;;;;;;;;;5052559;28;20059;-86
2023/11/30 12:08:46;;;;;;;18.98;9.15;;;;;;;;;;5045073;28;20036;-86
2023/11/30 12:11:31;;;;;;;15.52;8.27;;;;;;;;;;5047421;28;20040;-85
2023/11/30 12:14:16;;;;;;;17.08;8.27;;;;;;;;;;5038077;28;20704;-84
2023/11/30 12:17:02;;;;;;;12.35;7.60;;;;;;;;;;5036626;28;20425;-85
2023/11/30 12:19:50;;;;;;;14.98;8.70;;;;;;;;;;5042668;28;20031;-89
2023/11/30 12:22:36;;;;;;;18.25;8.80;;;;;;;;;;5037452;28;20416;-84
2023/11/30 12:25:21;;;;;;;12.73;8.25;;;;;;;;;;5044834;28;20028;-83
2023/11/30 12:28:06;;;;;;;16.33;8.95;;;;;;;;;;5039514;28;20032;-85
2023/11/30 12:30:51;;;;;;;18.63;9.50;;;;;;;;;;5034116;28;20742;-87
2023/11/30 12:33:44;;;;;;;16.08;8.02;;;;;;;;;;5050959;28;20041;-85
2023/11/30 12:36:29;;;;;;;15.02;9.10;;;;;;;;;;5037231;28;20039;-86
2023/11/30 12:39:16;;;;;;;15.35;7.50;;;;;;;;;;5033625;28;20475;-82
2023/11/30 12:42:01;;;;;;;12.25;7.75;;;;;;;;;;5040310;28;20028;-84
2023/11/30 12:44:46;;;;;;;13.18;8.38;;;;;;;;;;5036920;28;20470;-84
2023/11/30 12:47:32;;;;;;;12.75;7.32;;;;;;;;;;5030626;28;20051;-86
2023/11/30 12:50:17;;;;;;;19.52;9.05;;;;;;;;;;5040323;28;20437;-84
2023/11/30 12:53:02;;;;;;;13.70;7.68;;;;;;;;;;5041622;28;20375;-82
2023/11/30 12:55:48;;;;;;;15.32;7.72;;;;;;;;;;5037413;28;20029;-85
2023/11/30 12:58:36;;;;;;;13.60;8.10;;;;;;;;;;5035917;28;20072;-86
2023/11/30 13:01:21;;;;;;;13.70;8.57;;;;;;;;;;5042086;28;20027;-86
2023/11/30 13:04:06;;;;;;;15.13;8.02;;;;;;;;;;5053069;28;20115;-87
2023/11/30 13:06:51;;;;;;;13.57;7.75;;;;;;;;;;5049908;28;20020;-87
2023/11/30 13:09:37;;;;;;;15.20;7.72;;;;;;;;;;5050715;28;20101;-82
2023/11/30 13:12:22;;;;;;;14.50;8.45;;;;;;;;;;5050569;28;20031;-82
2023/11/30 13:15:08;;;;;;;12.55;7.38;;;;;;;;;;5063332;28;20059;-82
2023/11/30 13:17:52;;;;;;;14.50;8.18;;;;;;;;;;5060196;28;20079;-82
2023/11/30 13:20:38;;;;;;;15.25;9.23;;;;;;;;;;5043112;28;20503;-82
2023/11/30 13:23:23;;;;;;;37.65;10.25;;;;;;;;;;5051649;28;20060;-82
2023/11/30 13:26:12;;;;;;;15.60;8.38;;;;;;;;;;5031788;28;20036;-82
2023/11/30 13:29:01;;;;;;;13.50;7.28;;;;;;;;;;5034423;28;20027;-82
2023/11/30 13:31:49;;;;;;;14.13;7.90;;;;;;;;;;5026803;28;20223;-83
2023/11/30 13:34:35;;;;;;;12.60;7.32;;;;;;;;;;5028233;28;20017;-84
2023/11/30 13:37:21;;;;;;;14.32;7.13;;;;;;;;;;5032562;28;20118;-84
2023/11/30 13:40:07;;;;;;;13.88;7.90;;;;;;;;;;5048748;28;20029;-86
2023/11/30 13:42:52;;;;;;;13.68;7.10;;;;;;;;;;5038759;28;20040;-85
2023/11/30 13:45:38;;;;;;;13.55;7.82;;;;;;;;;;5027131;28;20025;-85
2023/11/30 13:48:23;;;;;;;14.63;7.53;;;;;;;;;;5034481;28;20071;-84
2023/11/30 13:51:08;;;;;;;13.65;7.15;;;;;;;;;;5052955;28;20115;-86
2023/11/30 13:53:54;;;;;;;13.20;8.40;;;;;;;;;;5036336;28;20027;-85
2023/11/30 13:56:39;;;;;;;12.05;7.30;;;;;;;;;;5033994;28;20025;-86
2023/11/30 13:59:24;;;;;;;16.05;8.68;;;;;;;;;;5027067;28;20041;-87
2023/11/30 14:02:09;;;;;;;12.95;7.90;;;;;;;;;;5036755;28;20032;-87
2023/11/30 14:04:55;;;;;;;16.35;8.68;;;;;;;;;;5034017;28;20033;-87
2023/11/30 14:07:40;;;;;;;14.48;8.55;;;;;;;;;;5021007;28;20031;-85
2023/11/30 14:10:27;;;;;;;12.43;7.88;;;;;;;;;;5043977;28;20041;-85
2023/11/30 14:13:12;;;;;;;14.77;8.57;;;;;;;;;;5034240;28;20029;-85
2023/11/30 14:15:58;;;;;;;12.63;8.43;;;;;;;;;;5037224;28;20027;-86
2023/11/30 14:18:43;;;;;;;13.23;6.70;;;;;;;;;;5041572;28;20037;-85
2023/11/30 14:21:28;;;;;;;16.67;7.70;;;;;;;;;;5037639;28;20161;-86
2023/11/30 14:24:14;;;;;;;14.10;7.10;;;;;;;;;;5036301;28;20062;-87
2023/11/30 14:26:59;;;;;;;17.60;6.88;;;;;;;;;;5030344;28;20040;-86
2023/11/30 14:29:45;;;;;;;13.57;6.70;;;;;;;;;;5042281;28;20028;-84
2023/11/30 14:32:32;;;;;;;14.48;7.45;;;;;;;;;;5043170;28;20033;-85
2023/11/30 14:35:17;;;;;;;13.43;8.23;;;;;;;;;;5047786;28;20029;-85
2023/11/30 14:38:03;;;;;;;12.80;7.20;;;;;;;;;;5038199;28;20036;-85
2023/11/30 14:40:48;;;;;;;13.20;7.72;;;;;;;;;;5038928;28;20041;-85
2023/11/30 14:43:33;;;;;;;13.98;8.38;;;;;;;;;;5033721;28;20025;-84
2023/11/30 14:46:18;;;;;;;13.05;7.40;;;;;;;;;;5039690;28;20021;-83
2023/11/30 14:49:03;;;;;;;12.68;7.05;;;;;;;;;;5033892;28;20021;-84
2023/11/30 14:51:49;;;;;;;11.27;6.72;;;;;;;;;;5036373;28;20032;-86
2023/11/30 14:54:34;;;;;;;12.43;7.35;;;;;;;;;;5049195;28;20115;-83
2023/11/30 14:57:19;;;;;;;12.18;7.50;;;;;;;;;;5037878;28;20029;-82
2023/11/30 15:00:10;;;;;;;13.52;6.72;;;;;;;;;;5029500;28;20472;-83
2023/11/30 15:02:55;;;;;;;12.38;7.30;;;;;;;;;;5033316;28;20495;-83
2023/11/30 15:05:40;;;;;;;13.73;7.78;;;;;;;;;;5032095;28;20094;-83
2023/11/30 15:08:25;;;;;;;13.10;8.43;;;;;;;;;;5032401;28;20115;-83
2023/11/30 15:11:11;;;;;;;14.98;7.57;;;;;;;;;;5029959;28;20072;-82
2023/11/30 15:13:57;;;;;;;16.50;9.38;;;;;;;;;;5036293;28;20032;-86
2023/11/30 15:16:43;;;;;;;13.00;7.20;;;;;;;;;;5041428;28;20025;-83
2023/11/30 15:19:28;;;;;;;12.88;6.97;;;;;;;;;;5023882;28;20044;-85
2023/11/30 15:22:13;;;;;;;15.00;7.47;;;;;;;;;;5047722;28;20033;-84
2023/11/30 15:24:59;;;;;;;14.38;7.13;;;;;;;;;;5044439;28;20405;-85
2023/11/30 15:27:44;;;;;;;13.90;7.47;;;;;;;;;;5034013;28;20028;-83
2023/11/30 15:30:29;;;;;;;12.23;7.68;;;;;;;;;;5033042;28;20032;-83
2023/11/30 15:33:15;;;;;;;18.77;7.70;;;;;;;;;;5032733;28;20017;-84
2023/11/30 15:36:00;;;;;;;14.23;7.60;;;;;;;;;;5035266;28;20028;-84
2023/11/30 15:38:45;;;;;;;13.82;8.30;;;;;;;;;;5033031;28;20025;-82
2023/11/30 15:41:30;;;;;;;14.15;7.40;;;;;;;;;;5045283;28;20040;-84
2023/11/30 15:44:16;;;;;;;12.25;6.97;;;;;;;;;;5036922;28;20112;-84
2023/11/30 15:47:02;;;;;;;15.25;9.18;;;;;;;;;;5037783;28;20056;-85
2023/11/30 15:49:47;;;;;;;14.32;7.90;;;;;;;;;;5031187;28;20083;-84
2023/11/30 15:52:33;;;;;;;13.05;6.80;;;;;;;;;;5038558;28;20082;-83
2023/11/30 15:55:18;;;;;;;13.35;7.03;;;;;;;;;;5040633;28;20496;-82
2023/11/30 15:58:04;;;;;;;12.98;6.93;;;;;;;;;;5033822;28;20520;-85
2023/11/30 16:00:50;;;;;;;12.10;6.72;;;;;;;;;;5036187;28;20463;-85
2023/11/30 16:03:35;;;;;;;12.55;6.65;;;;;;;;;;5033899;28;20384;-84
2023/11/30 16:06:21;;;;;;;15.45;7.28;;;;;;;;;;5049365;28;20033;-83
2023/11/30 16:09:07;;;;;;;12.13;6.68;;;;;;;;;;5045298;28;20029;-85
2023/11/30 16:11:52;;;;;;;13.32;6.88;;;;;;;;;;5029320;28;20029;-85
2023/11/30 16:14:39;;;;;;;11.73;6.28;;;;;;;;;;5014035;28;20021;-84
2023/11/30 16:17:25;;;;;;;15.07;8.98;;;;;;;;;;5025391;28;20029;-83
2023/11/30 16:20:11;;;;;;;14.82;7.70;;;;;;;;;;5021202;28;20563;-84
2023/11/30 16:22:56;;;;;;;14.27;6.20;;;;;;;;;;5021165;28;20056;-83
2023/11/30 16:25:41;;;;;;;14.40;7.40;;;;;;;;;;5024541;28;20056;-82